createdAt,value
2018-08-16T00:00:18.327Z,79.42
2018-08-16T00:02:47.615Z,78.09
2018-08-16T00:05:16.809Z,78.91
2018-08-16T00:07:46.022Z,79.18
2018-08-16T00:10:18.170Z,78.00
2018-08-16T00:12:48.699Z,77.71
2018-08-16T00:15:18.649Z,79.09
2018-08-16T00:17:47.719Z,78.77
2018-08-16T00:20:16.842Z,79.43
2018-08-16T00:22:46.029Z,79.72
2018-08-16T00:25:15.414Z,79.27
2018-08-16T00:27:44.438Z,79.32
2018-08-16T00:30:15.893Z,78.94
2018-08-16T00:32:45.081Z,78.95
2018-08-16T00:35:14.084Z,79.10
2018-08-16T00:37:43.307Z,79.57
2018-08-16T00:40:15.100Z,79.83
2018-08-16T00:42:43.954Z,79.20
2018-08-16T00:45:13.306Z,77.91
2018-08-16T00:47:42.339Z,78.97
2018-08-16T00:50:12.853Z,78.47
2018-08-16T00:52:41.730Z,78.39
2018-08-16T00:55:11.722Z,79.06
2018-08-16T00:57:40.688Z,78.65
2018-08-16T01:00:12.349Z,79.20
2018-08-16T01:02:41.395Z,79.71
2018-08-16T01:05:10.317Z,79.97
2018-08-16T01:07:39.399Z,79.71
2018-08-16T01:10:10.903Z,79.24
2018-08-16T01:12:40.220Z,79.72
2018-08-16T01:15:13.637Z,80.12
2018-08-16T01:17:42.624Z,79.64
2018-08-16T01:20:11.518Z,79.90
2018-08-16T01:22:40.472Z,79.44
2018-08-16T01:25:10.651Z,78.42
2018-08-16T01:27:39.652Z,79.99
2018-08-16T01:30:09.831Z,80.08
2018-08-16T01:32:38.714Z,80.33
2018-08-16T01:35:08.554Z,80.32
2018-08-16T01:37:37.505Z,79.71
2018-08-16T01:40:07.116Z,79.86
2018-08-16T01:42:36.394Z,79.54
2018-08-16T01:45:05.616Z,80.46
2018-08-16T01:47:34.565Z,78.97
2018-08-16T01:50:03.796Z,79.43
2018-08-16T01:52:32.840Z,79.07
2018-08-16T01:55:01.834Z,80.00
2018-08-16T01:57:30.995Z,79.34
2018-08-16T01:59:59.952Z,79.64
2018-08-16T02:02:28.936Z,79.72
2018-08-16T02:04:57.934Z,79.63
2018-08-16T02:07:26.788Z,80.47
2018-08-16T02:09:55.648Z,80.20
2018-08-16T02:12:24.672Z,80.12
2018-08-16T02:14:53.565Z,80.55
2018-08-16T02:17:22.442Z,81.01
2018-08-16T02:19:51.360Z,79.53
2018-08-16T02:22:20.451Z,80.38
2018-08-16T02:24:49.287Z,80.44
2018-08-16T02:27:18.204Z,79.36
2018-08-16T02:29:47.030Z,79.35
2018-08-16T02:32:15.983Z,80.20
2018-08-16T02:34:44.917Z,80.76
2018-08-16T02:37:13.847Z,79.18
2018-08-16T02:39:42.708Z,79.67
2018-08-16T02:42:11.631Z,80.31
2018-08-16T02:44:40.572Z,80.59
2018-08-16T02:47:09.405Z,80.20
2018-08-16T02:49:38.352Z,81.42
2018-08-16T02:52:07.289Z,80.35
2018-08-16T02:54:36.140Z,80.46
2018-08-16T02:57:05.144Z,80.51
2018-08-16T02:59:34.049Z,80.61
2018-08-16T03:02:03.028Z,80.62
2018-08-16T03:04:31.965Z,80.76
2018-08-16T03:07:00.807Z,81.73
2018-08-16T03:09:29.731Z,81.12
2018-08-16T03:11:58.837Z,81.07
2018-08-16T03:14:27.758Z,80.94
2018-08-16T03:16:56.693Z,80.21
2018-08-16T03:19:25.670Z,80.59
2018-08-16T03:21:54.509Z,81.94
2018-08-16T03:24:23.357Z,80.81
2018-08-16T03:26:52.419Z,80.51
2018-08-16T03:29:21.303Z,81.19
2018-08-16T03:31:50.124Z,80.87
2018-08-16T03:34:19.024Z,80.96
2018-08-16T03:36:47.876Z,81.73
2018-08-16T03:39:16.723Z,81.39
2018-08-16T03:41:45.724Z,80.63
2018-08-16T03:44:14.582Z,80.68
2018-08-16T03:46:43.410Z,79.58
2018-08-16T03:49:12.376Z,80.16
2018-08-16T03:51:41.196Z,80.39
2018-08-16T03:54:10.094Z,81.29
2018-08-16T03:56:39.028Z,81.61
2018-08-16T03:59:07.874Z,81.94
2018-08-16T04:01:36.795Z,80.50
2018-08-16T04:04:05.745Z,80.92
2018-08-16T04:06:34.604Z,81.16
2018-08-16T04:09:03.561Z,82.84
2018-08-16T04:11:32.604Z,81.52
2018-08-16T04:14:01.421Z,82.29
2018-08-16T04:16:30.500Z,81.22
2018-08-16T04:18:59.377Z,82.77
2018-08-16T04:21:28.319Z,82.20
2018-08-16T04:23:57.235Z,80.77
2018-08-16T04:26:26.196Z,81.60
2018-08-16T04:28:55.038Z,82.04
2018-08-16T04:31:24.112Z,82.46
2018-08-16T04:33:52.954Z,82.54
2018-08-16T04:36:21.858Z,82.78
2018-08-16T04:38:50.778Z,82.17
2018-08-16T04:41:19.625Z,83.51
2018-08-16T04:43:48.600Z,81.58
2018-08-16T04:46:17.496Z,82.52
2018-08-16T04:48:46.453Z,82.04
2018-08-16T04:51:15.281Z,82.52
2018-08-16T04:53:44.235Z,82.72
2018-08-16T04:56:13.078Z,82.45
2018-08-16T04:58:41.916Z,83.48
2018-08-16T05:01:10.838Z,82.84
2018-08-16T05:03:39.795Z,82.96
2018-08-16T05:06:08.659Z,82.43
2018-08-16T05:08:37.552Z,82.83
2018-08-16T05:11:06.482Z,82.70
2018-08-16T05:13:35.317Z,83.85
2018-08-16T05:16:04.357Z,83.23
2018-08-16T05:18:33.223Z,83.50
2018-08-16T05:21:02.058Z,83.91
2018-08-16T05:23:31.006Z,82.90
2018-08-16T05:26:00.008Z,82.44
2018-08-16T05:28:28.887Z,83.32
2018-08-16T05:30:57.880Z,82.64
2018-08-16T05:33:26.809Z,83.57
2018-08-16T05:35:55.702Z,82.92
2018-08-16T05:38:24.639Z,83.34
2018-08-16T05:40:53.512Z,83.91
2018-08-16T05:43:22.426Z,83.29
2018-08-16T05:45:51.291Z,82.87
2018-08-16T05:48:20.692Z,82.93
2018-08-16T05:50:49.658Z,83.17
2018-08-16T05:53:18.591Z,83.63
2018-08-16T05:55:47.396Z,83.19
2018-08-16T05:58:16.391Z,82.64
2018-08-16T06:00:45.257Z,82.42
2018-08-16T06:03:14.110Z,83.35
2018-08-16T06:05:43.129Z,83.83
2018-08-16T06:08:11.958Z,82.96
2018-08-16T06:10:40.824Z,83.27
2018-08-16T06:13:09.892Z,82.66
2018-08-16T06:15:38.750Z,83.80
2018-08-16T06:18:07.696Z,82.93
2018-08-16T06:20:36.694Z,83.00
2018-08-16T06:23:05.720Z,83.68
2018-08-16T06:25:34.584Z,82.66
2018-08-16T06:28:03.489Z,82.62
2018-08-16T06:30:32.384Z,82.83
2018-08-16T06:33:01.234Z,82.74
2018-08-16T06:35:30.145Z,84.10
2018-08-16T06:37:58.996Z,83.34
2018-08-16T06:40:27.873Z,83.72
2018-08-16T06:42:56.779Z,82.97
2018-08-16T06:45:25.660Z,83.10
2018-08-16T06:47:55.114Z,82.45
2018-08-16T06:50:24.136Z,83.08
2018-08-16T06:52:53.012Z,82.90
2018-08-16T06:55:21.869Z,83.09
2018-08-16T06:57:50.842Z,83.50
2018-08-16T07:00:19.821Z,82.92
2018-08-16T07:02:48.691Z,82.98
2018-08-16T07:05:17.692Z,83.13
2018-08-16T07:07:46.554Z,84.00
2018-08-16T07:10:15.569Z,82.61
2018-08-16T07:12:44.533Z,82.90
2018-08-16T07:15:14.912Z,82.54
2018-08-16T07:17:44.447Z,82.33
2018-08-16T07:20:13.391Z,83.09
2018-08-16T07:22:42.309Z,82.83
2018-08-16T07:25:11.290Z,82.64
2018-08-16T07:27:40.298Z,81.52
2018-08-16T07:30:10.044Z,81.49
2018-08-16T07:32:39.308Z,81.40
2018-08-16T07:35:08.745Z,82.82
2018-08-16T07:37:37.619Z,81.75
2018-08-16T07:40:07.403Z,82.03
2018-08-16T07:42:36.254Z,81.98
2018-08-16T07:45:07.028Z,81.78
2018-08-16T07:47:36.054Z,81.47
2018-08-16T07:50:06.554Z,79.21
2018-08-16T07:52:35.505Z,81.04
2018-08-16T07:55:04.708Z,80.82
2018-08-16T07:57:33.716Z,81.10
2018-08-16T08:00:02.793Z,78.33
2018-08-16T08:02:31.731Z,79.93
2018-08-16T08:05:00.565Z,79.27
2018-08-16T08:07:29.623Z,79.34
2018-08-16T08:09:58.573Z,81.01
2018-08-16T08:12:27.552Z,77.58
2018-08-16T08:14:56.499Z,77.55
2018-08-16T08:17:25.389Z,76.28
2018-08-16T08:19:54.449Z,76.75
2018-08-16T08:22:23.333Z,74.96
2018-08-16T08:24:53.042Z,74.52
2018-08-16T08:27:21.936Z,73.58
2018-08-16T08:29:50.828Z,74.10
2018-08-16T08:32:19.818Z,71.82
2018-08-16T08:34:48.862Z,71.72
2018-08-16T08:37:28.995Z,73.98
2018-08-16T08:39:57.811Z,72.63
2018-08-16T08:42:26.694Z,72.02
2018-08-16T08:44:55.596Z,70.30
2018-08-16T08:47:29.058Z,71.80
2018-08-16T08:49:57.968Z,70.12
2018-08-16T08:52:26.908Z,71.07
2018-08-16T08:55:07.207Z,70.96
2018-08-16T08:57:47.393Z,70.96
2018-08-16T09:00:16.534Z,67.99
2018-08-16T09:02:45.413Z,68.62
2018-08-16T09:05:14.345Z,68.53
2018-08-16T09:07:43.530Z,67.59
2018-08-16T09:11:21.697Z,68.20
2018-08-16T09:14:05.283Z,68.98
2018-08-16T09:16:38.348Z,67.60
2018-08-16T09:19:08.288Z,67.32
2018-08-16T09:21:37.344Z,66.99
2018-08-16T09:24:06.388Z,64.91
2018-08-16T09:26:40.690Z,65.10
2018-08-16T09:29:20.756Z,65.45
2018-08-16T09:33:05.021Z,66.29
2018-08-16T09:35:34.418Z,64.60
2018-08-16T09:38:03.430Z,68.07
2018-08-16T09:40:32.339Z,66.04
2018-08-16T09:43:01.216Z,66.83
2018-08-16T09:45:41.844Z,66.68
2018-08-16T09:48:22.533Z,67.36
2018-08-16T09:50:51.444Z,65.73
2018-08-16T09:53:20.340Z,65.93
2018-08-16T09:55:49.216Z,67.94
2018-08-16T09:58:18.085Z,65.91
2018-08-16T10:00:52.390Z,66.81
2018-08-16T10:03:21.317Z,65.84
2018-08-16T10:05:50.240Z,62.90
2018-08-16T10:08:19.184Z,65.32
2018-08-16T10:10:48.096Z,67.50
2018-08-16T10:13:16.930Z,67.52
2018-08-16T10:15:45.862Z,65.03
2018-08-16T10:18:14.766Z,63.99
2018-08-16T10:20:43.679Z,64.33
2018-08-16T10:23:13.192Z,65.04
2018-08-16T10:25:42.184Z,63.92
2018-08-16T10:28:11.029Z,62.64
2018-08-16T10:30:39.896Z,63.40
2018-08-16T10:33:09.120Z,63.42
2018-08-16T10:35:38.040Z,63.81
2018-08-16T10:38:06.908Z,62.61
2018-08-16T10:40:35.827Z,61.53
2018-08-16T10:43:04.761Z,63.66
2018-08-16T10:45:33.598Z,63.01
2018-08-16T10:48:02.517Z,61.58
2018-08-16T10:50:31.444Z,64.52
2018-08-16T10:53:00.321Z,63.72
2018-08-16T10:55:29.249Z,63.29
2018-08-16T10:57:58.537Z,60.79
2018-08-16T11:00:27.662Z,61.97
2018-08-16T11:02:56.546Z,61.34
2018-08-16T11:05:25.397Z,62.12
2018-08-16T11:07:54.313Z,62.04
2018-08-16T11:10:23.205Z,62.30
2018-08-16T11:12:52.156Z,60.11
2018-08-16T11:15:21.070Z,59.73
2018-08-16T11:17:50.205Z,58.27
2018-08-16T11:20:19.171Z,61.33
2018-08-16T11:22:48.092Z,62.20
2018-08-16T11:25:16.953Z,60.55
2018-08-16T11:27:46.059Z,60.61
2018-08-16T11:30:15.124Z,61.04
2018-08-16T11:32:44.360Z,60.01
2018-08-16T11:35:13.461Z,61.76
2018-08-16T11:37:42.414Z,59.96
2018-08-16T11:40:11.514Z,60.47
2018-08-16T11:42:40.451Z,60.13
2018-08-16T11:45:09.769Z,58.30
2018-08-16T11:47:38.709Z,58.45
2018-08-16T11:50:07.544Z,56.90
2018-08-16T11:52:36.437Z,58.25
2018-08-16T11:55:05.348Z,58.76
2018-08-16T11:57:34.454Z,59.40
2018-08-16T12:00:03.393Z,56.61
2018-08-16T12:02:32.941Z,56.95
2018-08-16T12:05:02.483Z,58.16
2018-08-16T12:07:31.748Z,57.85
2018-08-16T12:10:00.902Z,59.58
2018-08-16T12:12:29.773Z,59.80
2018-08-16T12:14:58.672Z,58.10
2018-08-16T12:17:27.528Z,57.70
2018-08-16T12:19:56.399Z,59.79
2018-08-16T12:22:25.298Z,57.93
2018-08-16T12:24:54.240Z,55.94
2018-08-16T12:27:23.229Z,59.48
2018-08-16T12:29:52.280Z,58.30
2018-08-16T12:32:21.134Z,57.95
2018-08-16T12:34:50.068Z,56.77
2018-08-16T12:37:18.961Z,55.72
2018-08-16T12:39:47.828Z,56.93
2018-08-16T12:42:16.870Z,57.58
2018-08-16T12:44:45.783Z,56.83
2018-08-16T12:47:14.688Z,56.74
2018-08-16T12:49:43.487Z,55.73
2018-08-16T12:52:12.396Z,56.05
2018-08-16T12:54:41.256Z,55.34
2018-08-16T12:57:10.225Z,56.42
2018-08-16T12:59:39.310Z,55.04
2018-08-16T13:02:08.496Z,53.33
2018-08-16T13:04:37.470Z,55.32
2018-08-16T13:07:06.535Z,56.04
2018-08-16T13:09:35.502Z,55.94
2018-08-16T13:12:04.640Z,56.71
2018-08-16T13:14:33.570Z,55.52
2018-08-16T13:17:02.575Z,55.38
2018-08-16T13:19:31.461Z,56.24
2018-08-16T13:22:00.472Z,55.71
2018-08-16T13:24:29.468Z,55.19
2018-08-16T13:26:59.057Z,53.41
2018-08-16T13:29:28.941Z,54.18
2018-08-16T13:31:57.942Z,54.34
2018-08-16T13:34:26.933Z,53.72
2018-08-16T13:36:55.909Z,53.59
2018-08-16T13:39:24.830Z,53.06
2018-08-16T13:41:53.829Z,53.69
2018-08-16T13:44:22.701Z,53.81
2018-08-16T13:46:51.634Z,54.40
2018-08-16T13:49:20.586Z,52.73
2018-08-16T13:51:49.582Z,53.02
2018-08-16T13:54:18.472Z,53.88
2018-08-16T13:56:47.703Z,53.34
2018-08-16T13:59:16.695Z,53.49
2018-08-16T14:01:45.600Z,52.55
2018-08-16T14:04:16.344Z,52.48
2018-08-16T14:06:45.326Z,53.19
2018-08-16T14:09:14.219Z,52.04
2018-08-16T14:11:43.224Z,52.42
2018-08-16T14:14:12.257Z,51.68
2018-08-16T14:16:41.293Z,52.82
2018-08-16T14:19:10.201Z,53.79
2018-08-16T14:21:39.052Z,53.29
2018-08-16T14:24:08.020Z,52.91
2018-08-16T14:26:37.187Z,51.97
2018-08-16T14:29:06.097Z,51.93
2018-08-16T14:31:34.941Z,50.66
2018-08-16T14:34:04.200Z,50.46
2018-08-16T14:36:33.142Z,51.49
2018-08-16T14:39:02.049Z,51.49
2018-08-16T14:41:30.942Z,51.26
2018-08-16T14:43:59.883Z,52.67
2018-08-16T14:46:28.796Z,51.36
2018-08-16T14:48:57.781Z,50.46
2018-08-16T14:51:26.736Z,51.24
2018-08-16T14:53:55.581Z,50.67
2018-08-16T14:56:25.246Z,51.41
2018-08-16T14:58:54.186Z,51.03
2018-08-16T15:01:23.029Z,51.29
2018-08-16T15:12:59.792Z,50.50
2018-08-16T15:15:44.841Z,51.46
2018-08-16T15:18:14.371Z,50.76
2018-08-16T15:20:44.487Z,50.46
2018-08-16T15:23:13.384Z,51.08
2018-08-16T15:25:42.415Z,49.69
2018-08-16T15:28:39.371Z,50.28
2018-08-16T15:31:08.463Z,51.52
2018-08-16T15:33:37.394Z,50.83
2018-08-16T15:36:06.386Z,50.04
2018-08-16T15:38:35.337Z,51.02
2018-08-16T15:42:17.766Z,50.74
2018-08-16T15:44:46.808Z,49.46
2018-08-16T15:47:15.750Z,50.00
2018-08-16T15:49:44.648Z,49.84
2018-08-16T15:52:13.557Z,49.87
2018-08-16T15:54:42.457Z,49.59
2018-08-16T15:57:11.505Z,49.42
2018-08-16T15:59:40.557Z,48.63
2018-08-16T16:02:09.517Z,51.37
2018-08-16T16:04:38.409Z,50.10
2018-08-16T16:07:07.464Z,50.49
2018-08-16T16:09:36.360Z,52.20
2018-08-16T16:12:05.240Z,51.23
2018-08-16T16:14:34.193Z,49.87
2018-08-16T16:17:03.138Z,49.59
2018-08-16T16:19:32.068Z,51.66
2018-08-16T16:22:01.276Z,50.07
2018-08-16T16:24:30.378Z,51.11
2018-08-16T16:26:59.350Z,48.97
2018-08-16T16:29:28.295Z,49.37
2018-08-16T16:31:57.206Z,50.01
2018-08-16T16:34:26.369Z,49.63
2018-08-16T16:36:55.314Z,49.55
2018-08-16T16:39:24.213Z,48.68
2018-08-16T16:41:53.131Z,49.67
2018-08-16T16:44:22.040Z,49.95
2018-08-16T16:46:51.021Z,49.19
2018-08-16T16:49:22.844Z,49.40
2018-08-16T16:51:52.601Z,49.87
2018-08-16T16:54:21.602Z,50.35
2018-08-16T16:56:51.205Z,50.87
2018-08-16T16:59:20.150Z,51.48
2018-08-16T17:01:48.999Z,52.30
2018-08-16T17:04:17.897Z,52.69
2018-08-16T17:06:46.886Z,53.50
2018-08-16T17:09:15.772Z,52.38
2018-08-16T17:11:44.722Z,51.92
2018-08-16T17:17:38.505Z,53.54
2018-08-16T17:20:08.129Z,52.58
2018-08-16T17:22:37.065Z,53.97
2018-08-16T17:25:06.426Z,53.58
2018-08-16T17:27:35.482Z,53.68
2018-08-16T17:30:05.196Z,53.11
2018-08-16T17:32:34.124Z,54.37
2018-08-16T17:35:03.260Z,53.62
2018-08-16T17:37:32.220Z,54.93
2018-08-16T17:40:01.197Z,54.84
2018-08-16T17:42:30.250Z,54.80
2018-08-16T17:44:59.170Z,55.12
2018-08-16T17:47:28.192Z,56.44
2018-08-16T17:49:57.186Z,55.19
2018-08-16T17:52:26.126Z,57.20
2018-08-16T17:54:55.074Z,57.95
2018-08-16T17:57:24.935Z,57.21
2018-08-16T18:02:50.622Z,55.71
2018-08-16T18:05:19.452Z,56.18
2018-08-16T18:07:48.345Z,57.11
2018-08-16T18:10:17.344Z,56.11
2018-08-16T18:12:46.303Z,57.03
2018-08-16T18:15:15.831Z,57.75
2018-08-16T18:17:44.875Z,58.75
2018-08-16T18:20:16.455Z,57.50
2018-08-16T18:22:45.436Z,59.20
2018-08-16T18:25:14.437Z,59.69
2018-08-16T18:27:43.336Z,60.58
2018-08-16T18:30:12.913Z,59.56
2018-08-16T18:32:42.510Z,58.49
2018-08-16T18:35:11.606Z,58.39
2018-08-16T18:37:41.104Z,59.02
2018-08-16T18:40:10.163Z,59.95
2018-08-16T18:42:39.116Z,57.78
2018-08-16T18:45:10.350Z,59.16
2018-08-16T18:47:41.104Z,57.53
2018-08-16T18:50:10.826Z,58.72
2018-08-16T18:52:39.754Z,61.56
2018-08-16T18:55:08.732Z,61.42
2018-08-16T18:57:38.675Z,61.77
2018-08-16T19:00:08.473Z,61.38
2018-08-16T19:02:37.399Z,62.05
2018-08-16T19:05:06.434Z,62.38
2018-08-16T19:07:36.409Z,63.51
2018-08-16T19:10:15.949Z,63.01
2018-08-16T19:12:44.765Z,62.66
2018-08-16T19:18:11.487Z,63.46
2018-08-16T19:20:41.437Z,63.13
2018-08-16T19:23:10.318Z,64.04
2018-08-16T19:25:39.250Z,64.71
2018-08-16T19:28:08.320Z,60.51
2018-08-16T19:30:37.352Z,60.27
2018-08-16T19:33:06.608Z,60.26
2018-08-16T19:35:35.722Z,59.32
2018-08-16T19:38:04.767Z,60.93
2018-08-16T19:40:33.630Z,58.92
2018-08-16T19:43:02.510Z,58.23
2018-08-16T19:45:31.430Z,58.26
2018-08-16T19:48:00.400Z,58.25
2018-08-16T19:50:29.162Z,58.86
2018-08-16T19:52:58.140Z,57.88
2018-08-16T19:55:26.992Z,58.08
2018-08-16T19:57:56.006Z,59.29
2018-08-16T20:00:24.988Z,58.75
2018-08-16T20:02:54.004Z,58.91
2018-08-16T20:05:22.865Z,59.47
2018-08-16T20:07:52.040Z,59.46
2018-08-16T20:10:21.071Z,60.86
2018-08-16T20:15:54.558Z,59.57
2018-08-16T20:24:00.076Z,59.69
2018-08-16T20:26:30.369Z,60.73
2018-08-16T20:28:59.221Z,61.76
2018-08-16T20:32:23.909Z,61.49
2018-08-16T20:34:52.836Z,61.99
2018-08-16T20:37:21.771Z,61.82
2018-08-16T20:39:50.611Z,61.96
2018-08-16T20:42:19.555Z,61.63
2018-08-16T20:44:48.573Z,62.17
2018-08-16T20:47:17.420Z,61.65
2018-08-16T20:49:46.349Z,61.88
2018-08-16T20:52:15.311Z,61.59
2018-08-16T20:54:44.201Z,62.16
2018-08-16T20:57:13.199Z,61.76
2018-08-16T20:59:42.185Z,62.17
2018-08-16T21:02:12.283Z,63.00
2018-08-16T21:04:41.379Z,62.66
2018-08-16T21:07:10.476Z,63.14
2018-08-16T21:09:40.080Z,63.97
2018-08-16T21:12:09.085Z,62.59
2018-08-16T21:14:38.159Z,63.81
2018-08-16T21:17:07.697Z,63.10
2018-08-16T21:19:37.060Z,64.11
2018-08-16T21:22:06.389Z,63.61
2018-08-16T21:24:36.623Z,63.77
2018-08-16T21:27:06.686Z,64.79
2018-08-16T21:29:35.876Z,65.49
2018-08-16T21:32:04.898Z,66.61
2018-08-16T21:34:34.073Z,66.76
2018-08-16T21:37:03.216Z,66.42
2018-08-16T21:39:32.179Z,68.27
2018-08-16T21:42:01.112Z,69.17
2018-08-16T21:44:30.101Z,67.66
2018-08-16T21:46:59.055Z,68.77
2018-08-16T21:49:28.157Z,67.56
2018-08-16T21:51:57.065Z,67.84
2018-08-16T21:54:25.956Z,66.91
2018-08-16T21:56:54.901Z,65.67
2018-08-16T21:59:23.801Z,66.17
2018-08-16T22:01:52.870Z,65.61
2018-08-16T22:04:21.895Z,65.95
2018-08-16T22:06:57.816Z,67.10
2018-08-16T22:09:26.996Z,68.57
2018-08-16T22:11:55.966Z,67.57
2018-08-16T22:14:24.868Z,68.42
2018-08-16T22:16:53.935Z,67.73
2018-08-16T22:19:22.883Z,68.06
2018-08-16T22:21:51.916Z,69.48
2018-08-16T22:24:26.534Z,68.87
2018-08-16T22:26:55.557Z,69.00
2018-08-16T22:29:31.885Z,70.39
2018-08-16T22:32:02.192Z,70.31
2018-08-16T22:34:33.005Z,70.49
2018-08-16T22:37:04.467Z,70.06
2018-08-16T22:39:35.142Z,69.01
2018-08-16T22:42:07.416Z,69.22
2018-08-16T22:44:38.139Z,70.11
2018-08-16T22:47:11.283Z,70.48
2018-08-16T22:49:40.671Z,69.88
2018-08-16T22:52:09.569Z,71.16
2018-08-16T22:54:38.560Z,70.09
2018-08-16T22:57:07.595Z,71.64
2018-08-16T22:59:36.708Z,71.58
2018-08-16T23:02:05.732Z,71.62
2018-08-16T23:04:34.706Z,71.29
2018-08-16T23:07:03.600Z,70.74
2018-08-16T23:09:32.479Z,71.81
2018-08-16T23:12:01.393Z,72.11
2018-08-16T23:14:30.433Z,72.38
2018-08-16T23:16:59.445Z,73.48
2018-08-16T23:19:28.370Z,72.20
2018-08-16T23:21:57.296Z,72.76
2018-08-16T23:24:26.208Z,72.68
2018-08-16T23:26:55.121Z,72.23
2018-08-16T23:29:24.028Z,72.65
2018-08-16T23:31:52.966Z,72.28
2018-08-16T23:34:21.899Z,71.67
2018-08-16T23:36:50.872Z,72.15
2018-08-16T23:39:37.527Z,72.04
2018-08-16T23:42:06.493Z,74.11
2018-08-16T23:44:35.522Z,72.81
2018-08-16T23:47:04.455Z,71.57
2018-08-16T23:49:33.328Z,71.26
2018-08-16T23:52:02.423Z,71.49
2018-08-16T23:54:31.519Z,71.15
2018-08-16T23:57:00.376Z,71.64
2018-08-16T23:59:29.256Z,72.00
